Time;durP1;ratioP1;P1;durP2;ratioP2;P2;SDS_P1;SDS_P2;PMS_P1;PMS_P2;Temp;Humidity;BMP_temperature;BMP_pressure;BME280_temperature;BME280_humidity;BME280_pressure;Samples;Min_cycle;Max_cycle;Signal;HPM_P1;HPM_P2
2023/01/13 00:01:08;;;;;;;12.85;2.85;;;;;;;6.72;100.00;99512.00;5055997;28;20036;-77
2023/01/13 00:03:34;;;;;;;22.17;2.90;;;;;;;6.84;100.00;99521.25;5040964;28;20029;-76
2023/01/13 00:06:00;;;;;;;180.05;162.48;;;;;;;6.84;100.00;99526.59;5057089;28;20040;-76
2023/01/13 00:08:25;;;;;;;11.95;2.53;;;;;;;6.79;100.00;99523.63;5073593;28;20119;-76
2023/01/13 00:10:51;;;;;;;23.05;5.28;;;;;;;6.91;100.00;99532.88;5040519;28;20044;-76
2023/01/13 00:13:25;;;;;;;20.88;5.68;;;;;;;6.97;100.00;99537.47;5057270;28;20046;-76
2023/01/13 00:16:23;;;;;;;12.60;3.05;;;;;;;6.89;100.00;99532.22;5058146;28;20036;-76
2023/01/13 00:18:51;;;;;;;23.70;4.25;;;;;;;7.01;100.00;99541.47;5024044;28;20540;-77
2023/01/13 00:21:19;;;;;;;303.85;274.80;;;;;;;7.30;100.00;99555.00;5057338;28;20067;-77
2023/01/13 00:23:46;;;;;;;194.10;175.00;;;;;;;7.39;100.00;99573.47;5056742;28;20033;-77
2023/01/13 00:26:21;;;;;;;34.63;24.08;;;;;;;7.48;100.00;99558.16;5073310;28;20496;-76
2023/01/13 00:28:46;;;;;;;13.55;2.20;;;;;;;7.45;100.00;99574.56;5056967;28;20037;-77
2023/01/13 00:31:15;;;;;;;22.35;3.88;;;;;;;7.39;100.00;99586.84;5056636;28;20028;-78
2023/01/13 00:33:41;;;;;;;29.95;4.90;;;;;;;7.37;100.00;99594.22;5056447;28;20020;-78
2023/01/13 00:36:08;;;;;;;23.73;4.50;;;;;;;7.23;100.00;99597.72;5040529;28;20479;-77
2023/01/13 00:38:34;;;;;;;12.40;3.33;;;;;;;7.28;100.00;99595.31;5040127;28;20028;-76
2023/01/13 00:41:03;;;;;;;12.07;2.67;;;;;;;7.25;100.00;99601.00;5056655;28;20040;-78
2023/01/13 00:43:31;;;;;;;12.07;2.30;;;;;;;7.11;100.00;99604.50;5040100;28;20033;-77
2023/01/13 00:45:57;;;;;;;14.93;2.38;;;;;;;6.91;100.00;99602.34;5040185;28;20035;-77
2023/01/13 00:48:23;;;;;;;15.55;2.83;;;;;;;7.10;100.00;99601.00;5056552;28;20031;-77
2023/01/13 00:50:59;;;;;;;10.82;1.77;;;;;;;6.95;100.00;99582.25;5056290;28;20087;-77
2023/01/13 00:53:26;;;;;;;13.45;2.25;;;;;;;6.99;100.00;99599.59;5056041;28;20218;-76
2023/01/13 00:56:00;;;;;;;14.95;3.25;;;;;;;6.92;100.00;99619.22;5072665;28;20136;-77
2023/01/13 00:58:29;;;;;;;16.80;2.53;;;;;;;6.62;100.00;99610.28;5072547;28;20025;-77
2023/01/13 01:00:59;;;;;;;7.63;1.88;;;;;;;6.35;100.00;99610.63;5039543;28;20136;-77
2023/01/13 01:03:25;;;;;;;16.70;2.85;;;;;;;6.21;100.00;99634.56;5039760;28;20113;-76
2023/01/13 01:05:50;;;;;;;12.02;2.97;;;;;;;6.04;100.00;99645.31;5056122;28;20086;-75
2023/01/13 01:08:16;;;;;;;7.03;1.48;;;;;;;5.76;100.00;99636.06;5039407;28;20036;-75
2023/01/13 01:10:42;;;;;;;9.52;1.50;;;;;;;5.55;100.00;99642.78;5055715;28;20099;-75
2023/01/13 01:13:10;;;;;;;1.15;0.68;;;;;;;5.28;100.00;99618.19;5056211;28;20043;-75
2023/01/13 01:15:39;;;;;;;5.00;0.70;;;;;;;5.16;100.00;99645.34;5072152;28;20044;-76
2023/01/13 01:18:05;;;;;;;0.93;0.77;;;;;;;5.16;100.00;99656.00;5055992;28;20032;-75
2023/01/13 01:20:31;;;;;;;0.40;0.40;;;;;;;5.10;100.00;99654.00;5055913;28;20062;-75
2023/01/13 01:22:56;;;;;;;1.90;0.47;;;;;;;5.05;100.00;99649.19;5039523;28;20467;-75
2023/01/13 01:25:22;;;;;;;0.40;0.40;;;;;;;5.03;100.00;99648.53;5039283;28;20481;-76
2023/01/13 01:27:48;;;;;;;0.50;0.50;;;;;;;5.02;100.00;99661.00;5039414;28;20032;-76
2023/01/13 01:30:14;;;;;;;0.32;0.32;;;;;;;4.97;100.00;99646.53;5072669;28;20475;-75
2023/01/13 01:32:39;;;;;;;5.28;1.02;;;;;;;5.03;100.00;99662.69;5055972;28;20048;-75
2023/01/13 01:35:05;;;;;;;0.70;0.70;;;;;;;5.07;100.00;99663.19;5038956;28;20033;-75
2023/01/13 01:37:31;;;;;;;2.45;0.80;;;;;;;5.05;100.00;99670.50;5039379;28;20042;-75
2023/01/13 01:39:57;;;;;;;1.45;0.50;;;;;;;5.07;100.00;99672.00;5055528;28;20024;-75
2023/01/13 01:45:14;;;;;;;1.17;0.88;;;;;;;5.44;100.00;99691.13;5072377;28;20037;-76
2023/01/13 01:47:40;;;;;;;14.95;2.92;;;;;;;5.63;100.00;99708.59;5039146;28;20482;-75
2023/01/13 01:50:07;;;;;;;9.38;1.92;;;;;;;5.86;100.00;99732.72;5055682;28;20028;-75
2023/01/13 01:52:36;;;;;;;1.55;0.93;;;;;;;5.78;100.00;99730.09;5039053;28;20036;-75
2023/01/13 01:55:04;;;;;;;3.20;1.02;;;;;;;5.65;100.00;99734.09;5039127;28;20033;-75
2023/01/13 01:57:29;;;;;;;1.17;0.50;;;;;;;5.57;100.00;99727.94;5072526;28;20033;-75
2023/01/13 01:59:57;;;;;;;0.52;0.52;;;;;;;5.52;100.00;99723.13;5055190;28;20433;-75
2023/01/13 02:02:22;;;;;;;0.50;0.50;;;;;;;5.49;100.00;99718.13;5039105;28;20036;-75
2023/01/13 02:04:51;;;;;;;0.40;0.40;;;;;;;5.46;100.00;99721.13;5039031;28;20467;-75
2023/01/13 02:07:22;;;;;;;0.40;0.40;;;;;;;5.41;100.00;99723.47;5055440;28;20033;-75
2023/01/13 02:09:48;;;;;;;0.40;0.40;;;;;;;5.31;100.00;99728.97;5038845;28;20067;-75
2023/01/13 02:12:31;;;;;;;1.45;0.50;;;;;;;5.36;100.00;99736.47;5055643;28;20471;-75
2023/01/13 02:15:17;;;;;;;0.50;0.50;;;;;;;5.46;100.00;99751.28;5057703;28;20029;-75
2023/01/13 02:18:10;;;;;;;0.43;0.43;;;;;;;5.48;100.00;99749.28;5038661;28;20766;-75
2023/01/13 02:21:12;;;;;;;0.57;0.50;;;;;;;5.51;100.00;99753.44;5071748;28;20108;-75
2023/01/13 02:27:39;;;;;;;3.78;0.90;;;;;;;5.42;100.00;99754.44;5018306;28;20083;-75
2023/01/13 02:33:16;;;;;;;0.50;0.50;;;;;;;5.27;100.00;99775.63;5075879;28;20029;-75
2023/01/13 02:35:54;;;;;;;1.02;0.68;;;;;;;5.29;100.00;99778.94;5076414;28;20055;-75
2023/01/13 02:38:24;;;;;;;1.30;0.60;;;;;;;5.32;100.00;99778.63;5059002;28;20058;-75
2023/01/13 02:40:57;;;;;;;0.65;0.55;;;;;;;5.34;100.00;99776.59;5075219;28;20494;-75
2023/01/13 02:46:43;;;;;;;1.48;0.85;;;;;;;5.70;100.00;99779.75;5061791;28;20036;-75
2023/01/13 02:49:13;;;;;;;0.40;0.40;;;;;;;5.75;100.00;99787.25;5058837;28;20040;-75
2023/01/13 02:51:42;;;;;;;0.80;0.80;;;;;;;5.57;100.00;99782.09;5058345;28;20048;-75
2023/01/13 02:54:12;;;;;;;1.77;1.05;;;;;;;5.42;100.00;99791.75;5042008;28;20046;-75
2023/01/13 02:56:45;;;;;;;0.40;0.40;;;;;;;5.35;100.00;99793.44;5042201;28;20047;-75
2023/01/13 02:59:11;;;;;;;0.45;0.45;;;;;;;5.43;100.00;99812.13;5058492;28;20107;-75
2023/01/13 03:01:37;;;;;;;0.50;0.50;;;;;;;5.54;100.00;99803.78;5075155;28;20044;-75
2023/01/13 03:04:14;;;;;;;0.40;0.40;;;;;;;5.65;100.00;99859.44;5074800;28;20024;-74
2023/01/13 03:06:52;;;;;;;0.50;0.50;;;;;;;5.58;100.00;99826.44;5058556;28;20082;-75
2023/01/13 03:09:22;;;;;;;1.27;0.60;;;;;;;5.59;100.00;99851.28;5058550;28;20048;-74
2023/01/13 03:12:03;;;;;;;3.13;0.85;;;;;;;5.57;100.00;99835.44;5041693;28;20033;-75
2023/01/13 03:14:48;;;;;;;4.80;0.82;;;;;;;5.63;100.00;99850.75;5058278;28;20044;-75
2023/01/13 03:17:46;;;;;;;5.20;1.48;;;;;;;5.60;100.00;99836.94;5041734;28;20123;-74
2023/01/13 03:20:12;;;;;;;1.63;0.77;;;;;;;5.49;100.00;99838.94;5041429;28;20058;-75
2023/01/13 03:22:49;;;;;;;1.85;0.77;;;;;;;5.34;100.00;99834.41;5074719;28;20032;-74
2023/01/13 03:25:25;;;;;;;0.40;0.40;;;;;;;5.14;100.00;99818.75;5041315;28;20182;-74
2023/01/13 03:27:57;;;;;;;3.03;1.00;;;;;;;5.08;100.00;99830.06;5058145;28;20158;-75
2023/01/13 03:30:31;;;;;;;0.40;0.40;;;;;;;5.11;100.00;99813.75;5041459;28;20408;-75
2023/01/13 03:33:05;;;;;;;1.13;0.50;;;;;;;5.30;100.00;99828.59;5074590;28;20025;-75
2023/01/13 03:35:35;;;;;;;0.60;0.60;;;;;;;5.57;100.00;99861.28;5057828;28;20028;-75
2023/01/13 03:38:21;;;;;;;8.70;1.77;;;;;;;5.68;100.00;99856.44;5041104;28;20390;-75
2023/01/13 03:40:50;;;;;;;0.40;0.40;;;;;;;5.68;100.00;99861.78;5074026;28;20559;-75
2023/01/13 03:46:09;;;;;;;0.50;0.50;;;;;;;5.57;100.00;99866.63;5074697;28;20378;-75
2023/01/13 03:48:37;;;;;;;2.13;0.88;;;;;;;5.45;100.00;99877.59;5041188;28;20040;-75
2023/01/13 03:51:07;;;;;;;6.38;1.85;;;;;;;5.38;100.00;99886.41;5040876;28;20024;-75
2023/01/13 03:53:46;;;;;;;0.50;0.50;;;;;;;5.40;100.00;99881.72;5057667;28;20040;-75
2023/01/13 03:56:19;;;;;;;0.70;0.70;;;;;;;5.63;100.00;99895.28;5057516;28;20025;-74
2023/01/13 03:58:47;;;;;;;0.45;0.45;;;;;;;5.76;100.00;99886.78;5057462;28;20028;-75
2023/01/13 04:01:23;;;;;;;3.55;1.08;;;;;;;5.75;100.00;99885.13;5074078;28;20561;-75
2023/01/13 04:03:49;;;;;;;0.60;0.55;;;;;;;5.80;100.00;99888.97;5040907;28;20036;-75
2023/01/13 04:06:40;;;;;;;0.50;0.50;;;;;;;5.69;100.00;99898.13;5073957;28;20035;-74
2023/01/13 04:09:37;;;;;;;1.17;0.47;;;;;;;5.44;100.00;99891.09;5057049;28;20386;-75
2023/01/13 04:12:10;;;;;;;0.40;0.40;;;;;;;5.39;100.00;99896.06;5056387;28;20040;-75
2023/01/13 04:14:36;;;;;;;0.50;0.50;;;;;;;5.53;100.00;99906.13;5073807;28;20424;-75
2023/01/13 04:17:02;;;;;;;0.40;0.40;;;;;;;5.56;100.00;99908.44;5040691;28;20036;-74
2023/01/13 04:19:28;;;;;;;2.90;0.70;;;;;;;5.57;100.00;99906.59;5056884;28;20090;-75
2023/01/13 04:21:54;;;;;;;0.40;0.40;;;;;;;5.60;100.00;99911.59;5040535;28;20368;-75
2023/01/13 04:24:19;;;;;;;0.40;0.40;;;;;;;5.55;100.00;99904.09;5074747;28;20040;-75
2023/01/13 04:26:45;;;;;;;0.50;0.50;;;;;;;5.56;100.00;99918.25;5073071;28;20033;-75
2023/01/13 04:29:11;;;;;;;0.40;0.40;;;;;;;5.48;100.00;99913.78;5056645;28;20036;-75
2023/01/13 04:31:37;;;;;;;5.88;1.20;;;;;;;5.35;100.00;99900.91;5039946;28;20115;-75
2023/01/13 04:34:02;;;;;;;0.40;0.40;;;;;;;5.42;100.00;99906.41;5040087;28;20064;-75
2023/01/13 04:36:28;;;;;;;0.80;0.52;;;;;;;5.47;100.00;99915.56;5072957;28;20028;-75
2023/01/13 04:38:54;;;;;;;1.10;0.65;;;;;;;5.75;100.00;99917.16;5056493;28;20119;-75
2023/01/13 04:41:22;;;;;;;0.50;0.50;;;;;;;5.87;100.00;99926.47;5072956;28;20039;-75
2023/01/13 04:43:47;;;;;;;2.83;1.00;;;;;;;6.03;100.00;99942.50;5055992;28;20156;-75
2023/01/13 04:46:13;;;;;;;1.55;1.20;;;;;;;6.07;100.00;99948.38;5072025;28;20046;-75
2023/01/13 04:48:39;;;;;;;6.05;1.20;;;;;;;5.99;100.00;99946.53;5073031;28;20081;-74
2023/01/13 04:51:05;;;;;;;2.60;0.93;;;;;;;6.03;100.00;99963.03;5072939;28;20383;-75
2023/01/13 04:53:30;;;;;;;0.43;0.43;;;;;;;5.98;100.00;99978.69;5039771;28;20186;-75
2023/01/13 04:55:56;;;;;;;3.92;0.65;;;;;;;5.92;100.00;99978.34;5056522;28;20043;-74
2023/01/13 04:58:22;;;;;;;1.38;0.70;;;;;;;5.90;100.00;99979.50;5072378;28;20375;-75
2023/01/13 05:00:49;;;;;;;2.55;0.70;;;;;;;5.78;100.00;99980.81;5072705;28;20044;-75
2023/01/13 05:03:15;;;;;;;0.55;0.55;;;;;;;5.48;100.00;99975.09;5039698;28;20036;-75
2023/01/13 05:05:40;;;;;;;0.60;0.60;;;;;;;5.41;100.00;99990.06;5039713;28;20048;-75
2023/01/13 05:08:07;;;;;;;0.45;0.45;;;;;;;5.37;100.00;100010.88;5072814;28;20036;-74
2023/01/13 05:10:34;;;;;;;1.02;0.90;;;;;;;5.41;100.00;100006.06;5072515;28;20028;-75
2023/01/13 05:18:28;;;;;;;0.30;0.30;;;;;;;5.52;100.00;100011.09;5072701;28;20095;-75
2023/01/13 05:20:54;;;;;;;0.63;0.60;;;;;;;5.52;100.00;100021.75;5039406;28;20070;-75
2023/01/13 05:26:06;;;;;;;0.40;0.40;;;;;;;5.61;100.00;100027.94;5072488;28;20035;-75
2023/01/13 05:28:33;;;;;;;0.95;0.50;;;;;;;5.53;100.00;100031.44;5072248;28;20028;-75
2023/01/13 05:30:59;;;;;;;0.40;0.40;;;;;;;5.49;100.00;100033.56;5056023;28;20040;-75
2023/01/13 05:33:25;;;;;;;0.40;0.40;;;;;;;5.52;100.00;100045.75;5039266;28;20082;-74
2023/01/13 05:35:50;;;;;;;0.40;0.40;;;;;;;5.43;100.00;100060.88;5072632;28;20068;-75
2023/01/13 05:38:17;;;;;;;2.28;0.82;;;;;;;5.43;100.00;100066.22;5072298;28;20033;-76
2023/01/13 05:43:28;;;;;;;0.40;0.40;;;;;;;5.26;100.00;100075.13;5058197;28;20036;-74
2023/01/13 05:45:59;;;;;;;0.45;0.45;;;;;;;5.07;100.00;100084.16;5039302;28;20054;-75
2023/01/13 05:48:30;;;;;;;0.47;0.47;;;;;;;4.79;100.00;100068.34;5055602;28;20042;-75
2023/01/13 05:50:56;;;;;;;0.40;0.40;;;;;;;4.65;100.00;100082.19;5055309;28;20045;-75
2023/01/13 05:53:23;;;;;;;0.40;0.40;;;;;;;4.61;100.00;100086.19;5072250;28;20103;-75
2023/01/13 05:55:49;;;;;;;0.40;0.40;;;;;;;4.65;100.00;100098.16;5055716;28;20029;-75
2023/01/13 05:58:16;;;;;;;0.40;0.40;;;;;;;4.75;100.00;100084.78;5041693;28;20028;-74
2023/01/13 06:00:42;;;;;;;0.40;0.40;;;;;;;4.88;100.00;100095.88;5059381;28;20484;-75
2023/01/13 06:03:08;;;;;;;0.90;0.50;;;;;;;5.07;100.00;100116.97;5059762;28;20119;-75
2023/01/13 06:05:35;;;;;;;0.50;0.50;;;;;;;5.28;100.00;100123.78;5059302;28;20085;-75
2023/01/13 06:08:02;;;;;;;1.45;0.68;;;;;;;5.35;100.00;100124.00;5043022;28;20524;-74
2023/01/13 06:10:29;;;;;;;2.38;0.70;;;;;;;5.41;100.00;100137.53;5026376;28;20131;-74
2023/01/13 06:12:57;;;;;;;0.40;0.40;;;;;;;5.35;100.00;100135.50;5059914;28;20058;-74
2023/01/13 06:15:23;;;;;;;0.40;0.40;;;;;;;5.20;100.00;100121.06;5059545;28;20127;-75
2023/01/13 06:17:49;;;;;;;0.40;0.40;;;;;;;5.10;100.00;100136.31;5075680;28;20471;-74
2023/01/13 06:20:15;;;;;;;0.40;0.40;;;;;;;4.93;100.00;100144.19;5059025;28;20036;-75
2023/01/13 06:22:45;;;;;;;0.40;0.40;;;;;;;4.88;100.00;100137.66;5075747;28;20036;-75
2023/01/13 06:25:32;;;;;;;0.88;0.40;;;;;;;4.90;100.00;100138.34;5075761;28;20044;-75
2023/01/13 06:27:58;;;;;;;0.32;0.32;;;;;;;4.89;100.00;100156.13;5059490;28;20090;-75
2023/01/13 06:30:26;;;;;;;0.40;0.40;;;;;;;4.90;100.00;100160.50;5058972;28;20090;-75
2023/01/13 06:32:54;;;;;;;0.40;0.40;;;;;;;5.09;100.00;100167.47;5042641;28;20036;-75
2023/01/13 06:35:24;;;;;;;0.40;0.40;;;;;;;5.17;100.00;100154.19;5042553;28;20458;-75
2023/01/13 06:37:52;;;;;;;0.40;0.40;;;;;;;5.37;100.00;100169.97;5042648;28;20037;-75
2023/01/13 06:40:21;;;;;;;0.40;0.40;;;;;;;5.59;100.00;100169.47;5042957;28;20043;-74
2023/01/13 06:45:32;;;;;;;0.50;0.50;;;;;;;5.85;100.00;100189.94;5075505;28;20036;-74
2023/01/13 06:47:58;;;;;;;0.40;0.40;;;;;;;5.91;100.00;100199.97;5058465;28;20028;-74
2023/01/13 06:50:25;;;;;;;0.30;0.30;;;;;;;5.96;100.00;100202.22;5042118;28;20482;-74
2023/01/13 06:52:51;;;;;;;0.40;0.40;;;;;;;6.00;100.00;100201.72;5042224;28;20044;-74
2023/01/13 06:55:16;;;;;;;1.17;0.60;;;;;;;6.03;100.00;100195.22;5042065;28;20032;-74
2023/01/13 06:57:52;;;;;;;0.40;0.40;;;;;;;6.14;100.00;100198.44;5058285;28;20028;-74
2023/01/13 07:00:21;;;;;;;0.40;0.40;;;;;;;6.09;100.00;100198.09;5058520;28;20033;-73
2023/01/13 07:02:46;;;;;;;0.40;0.40;;;;;;;6.06;100.00;100200.22;5058428;28;20044;-74
2023/01/13 07:05:13;;;;;;;0.40;0.40;;;;;;;6.01;100.00;100195.41;5058617;28;20077;-75
2023/01/13 07:07:38;;;;;;;0.40;0.40;;;;;;;5.95;100.00;100196.00;5058611;28;20085;-74
2023/01/13 07:10:08;;;;;;;0.40;0.40;;;;;;;5.83;100.00;100219.44;5057775;28;20119;-74
2023/01/13 07:15:17;;;;;;;0.40;0.40;;;;;;;5.63;100.00;100213.47;5075079;28;20109;-74
2023/01/13 07:15:22;;;;;;;1.00;0.88;;;;;;;5.54;100.00;100214.44;5060883;28;20174;-74
2023/01/13 07:17:48;;;;;;;0.50;0.50;;;;;;;5.68;100.00;100224.50;5041427;28;20123;-74
2023/01/13 07:20:15;;;;;;;0.50;0.50;;;;;;;5.74;100.00;100228.38;5058011;28;20389;-74
2023/01/13 07:22:40;;;;;;;1.40;1.30;;;;;;;5.87;100.00;100250.13;5058342;28;20025;-74
2023/01/13 07:25:07;;;;;;;0.40;0.40;;;;;;;5.93;100.00;100262.91;5058138;28;20048;-74
2023/01/13 07:27:36;;;;;;;2.00;0.60;;;;;;;6.05;100.00;100250.09;5075461;28;20032;-74
2023/01/13 07:30:03;;;;;;;0.50;0.50;;;;;;;6.13;100.00;100258.16;5057858;28;20040;-75
2023/01/13 07:32:31;;;;;;;0.57;0.50;;;;;;;6.21;100.00;100253.84;5057996;28;20040;-74
2023/01/13 07:35:03;;;;;;;0.50;0.50;;;;;;;6.25;100.00;100272.06;5057578;28;20367;-75
2023/01/13 07:37:30;;;;;;;1.75;0.60;;;;;;;6.04;100.00;100307.16;5042230;28;20561;-74
2023/01/13 07:39:55;;;;;;;5.05;1.25;;;;;;;5.78;100.00;100271.59;5041059;28;20115;-74
2023/01/13 07:45:06;;;;;;;0.50;0.50;;;;;;;5.52;100.00;100269.75;5059831;28;20032;-76
2023/01/13 07:47:32;;;;;;;0.40;0.40;;;;;;;5.40;100.00;100277.16;5057115;28;20119;-75
2023/01/13 07:49:57;;;;;;;0.43;0.43;;;;;;;5.30;100.00;100279.06;5074041;28;20162;-74
2023/01/13 07:52:23;;;;;;;0.40;0.40;;;;;;;5.17;100.00;100287.44;5073930;28;20034;-75
2023/01/13 07:54:49;;;;;;;0.40;0.40;;;;;;;5.04;100.00;100293.16;5057266;28;20037;-74
2023/01/13 07:57:14;;;;;;;0.40;0.40;;;;;;;4.99;100.00;100295.44;5057361;28;20397;-74
2023/01/13 07:59:40;;;;;;;0.40;0.40;;;;;;;4.89;100.00;100296.50;5057400;28;20454;-74
2023/01/13 08:02:10;;;;;;;0.50;0.50;;;;;;;4.91;100.00;100302.50;5057439;28;20090;-74
2023/01/13 08:04:35;;;;;;;0.50;0.50;;;;;;;4.92;100.00;100313.03;5057063;28;20032;-74
2023/01/13 08:07:01;;;;;;;0.40;0.40;;;;;;;4.96;100.00;100321.56;5073389;28;20531;-75
2023/01/13 08:09:27;;;;;;;0.50;0.50;;;;;;;4.98;100.00;100324.91;5073826;28;20458;-74
2023/01/13 08:13:16;;;;;;;0.40;0.40;;;;;;;4.97;100.00;100325.88;5040577;28;20089;-75
2023/01/13 08:14:39;;;;;;;0.40;0.40;;;;;;;4.93;100.00;100324.53;5059825;28;20056;-74
2023/01/13 08:17:06;;;;;;;0.40;0.40;;;;;;;5.05;100.00;100339.28;5057085;28;20459;-74
2023/01/13 08:19:35;;;;;;;0.40;0.40;;;;;;;5.11;100.00;100336.03;5072938;28;20104;-74
2023/01/13 08:22:00;;;;;;;0.40;0.40;;;;;;;5.18;100.00;100337.09;5072064;28;20111;-74
2023/01/13 08:24:28;;;;;;;0.40;0.40;;;;;;;5.28;100.00;100347.69;5056377;28;20444;-74
2023/01/13 08:26:54;;;;;;;0.50;0.50;;;;;;;5.32;100.00;100341.09;5056837;28;20028;-74
2023/01/13 08:29:20;;;;;;;0.40;0.40;;;;;;;5.37;100.00;100346.81;5074574;28;20063;-74
2023/01/13 08:31:45;;;;;;;0.40;0.40;;;;;;;5.46;100.00;100350.38;5073140;28;20035;-76
2023/01/13 08:34:11;;;;;;;0.40;0.40;;;;;;;5.51;100.00;100356.09;5040152;28;20036;-74
2023/01/13 08:36:37;;;;;;;0.47;0.47;;;;;;;5.50;100.00;100357.91;5040153;28;20432;-76
2023/01/13 08:39:02;;;;;;;0.40;0.40;;;;;;;5.55;100.00;100356.59;5056163;28;20459;-77
2023/01/13 08:44:12;;;;;;;0.40;0.40;;;;;;;5.50;100.00;100373.06;5058494;28;20056;-74
2023/01/13 08:46:38;;;;;;;0.43;0.43;;;;;;;5.53;100.00;100375.44;5039821;28;20458;-74
2023/01/13 08:49:04;;;;;;;0.50;0.50;;;;;;;5.52;100.00;100371.09;5056219;28;20052;-74
2023/01/13 08:51:30;;;;;;;0.40;0.40;;;;;;;5.56;100.00;100382.28;5056414;28;20111;-75
2023/01/13 08:53:55;;;;;;;0.40;0.40;;;;;;;5.50;100.00;100389.91;5039621;28;20024;-76
2023/01/13 08:56:21;;;;;;;0.40;0.40;;;;;;;5.43;100.00;100402.19;5055837;28;20068;-76
2023/01/13 08:58:47;;;;;;;0.40;0.40;;;;;;;5.33;100.00;100397.91;5056359;28;20090;-75
2023/01/13 09:01:14;;;;;;;0.50;0.50;;;;;;;5.28;100.00;100399.19;5056017;28;20484;-76
2023/01/13 09:03:40;;;;;;;0.40;0.40;;;;;;;5.33;100.00;100392.56;5055693;28;20501;-76
2023/01/13 09:06:06;;;;;;;0.40;0.40;;;;;;;5.41;100.00;100384.66;5072309;28;20043;-76
2023/01/13 09:08:32;;;;;;;0.40;0.40;;;;;;;5.55;100.00;100399.28;5056075;28;20039;-76
2023/01/13 09:10:58;;;;;;;0.47;0.47;;;;;;;5.58;100.00;100401.63;5023058;28;20040;-75
2023/01/13 09:13:24;;;;;;;0.40;0.40;;;;;;;5.50;100.00;100391.72;5055751;28;20103;-75
2023/01/13 09:15:51;;;;;;;0.40;0.40;;;;;;;5.62;100.00;100408.34;5073627;28;20032;-75
2023/01/13 09:18:17;;;;;;;0.45;0.45;;;;;;;5.63;100.00;100416.19;5072536;28;20025;-74
2023/01/13 09:20:47;;;;;;;0.40;0.40;;;;;;;5.66;100.00;100421.25;5072274;28;20037;-77
2023/01/13 09:23:15;;;;;;;0.40;0.40;;;;;;;5.64;100.00;100430.38;5056539;28;20430;-75
2023/01/13 09:25:41;;;;;;;0.40;0.40;;;;;;;5.65;100.00;100430.22;5039513;28;20505;-74
2023/01/13 09:28:07;;;;;;;0.45;0.45;;;;;;;5.69;100.00;100433.44;5039371;28;20501;-76
2023/01/13 09:30:33;;;;;;;0.40;0.40;;;;;;;5.59;100.00;100428.16;5071987;28;20063;-76
2023/01/13 09:35:42;;;;;;;0.50;0.50;;;;;;;5.55;100.00;100434.78;5058396;28;20131;-77
2023/01/13 09:38:08;;;;;;;0.50;0.50;;;;;;;5.61;100.00;100439.53;5072487;28;20547;-76
2023/01/13 09:40:36;;;;;;;0.40;0.40;;;;;;;5.60;100.00;100437.84;5039375;28;20040;-76
2023/01/13 09:49:27;;;;;;;0.50;0.50;;;;;;;5.42;100.00;100455.63;5019962;28;20476;-79
2023/01/13 09:52:05;;;;;;;0.50;0.50;;;;;;;5.44;100.00;100459.84;5014440;28;20108;-79
2023/01/13 09:54:43;;;;;;;0.40;0.40;;;;;;;5.41;100.00;100456.63;5047256;28;20044;-79
2023/01/13 09:57:10;;;;;;;0.50;0.50;;;;;;;5.43;100.00;100452.00;5072112;28;20047;-78
2023/01/13 09:59:37;;;;;;;0.40;0.40;;;;;;;5.49;100.00;100467.41;5071886;28;20704;-79
2023/01/13 10:02:21;;;;;;;0.40;0.40;;;;;;;5.61;100.00;100462.66;5055656;28;20036;-79
2023/01/13 10:05:02;;;;;;;0.50;0.50;;;;;;;5.63;100.00;100472.19;5055593;28;20029;-80
2023/01/13 10:07:30;;;;;;;0.40;0.40;;;;;;;5.64;100.00;100452.56;5072038;28;20056;-79
2023/01/13 10:09:57;;;;;;;0.40;0.40;;;;;;;5.94;100.00;100462.03;5071984;28;20474;-79
2023/01/13 10:15:22;;;;;;;0.50;0.50;;;;;;;6.09;100.00;100482.88;5071973;28;20545;-79
2023/01/13 10:17:58;;;;;;;0.40;0.40;;;;;;;5.91;100.00;100490.84;5071807;28;20029;-79
2023/01/13 10:20:45;;;;;;;0.40;0.40;;;;;;;5.76;100.00;100479.84;5055654;28;20488;-79
2023/01/13 10:23:26;;;;;;;0.40;0.40;;;;;;;5.62;100.00;100478.53;5038785;28;20422;-79
2023/01/13 10:25:54;;;;;;;0.50;0.50;;;;;;;5.59;100.00;100494.00;5072706;28;20479;-81
2023/01/13 10:28:22;;;;;;;0.40;0.40;;;;;;;5.65;100.00;100498.75;5055243;28;20363;-79
2023/01/13 10:30:48;;;;;;;0.45;0.45;;;;;;;5.92;100.00;100503.19;5071618;28;20391;-80
2023/01/13 10:33:23;;;;;;;0.40;0.40;;;;;;;6.19;100.00;100506.78;5038754;28;20040;-80
2023/01/13 10:35:55;;;;;;;0.50;0.50;;;;;;;6.12;100.00;100510.09;5038753;28;20459;-80
2023/01/13 10:38:23;;;;;;;0.43;0.43;;;;;;;5.90;100.00;100503.34;5071955;28;20040;-79
2023/01/13 10:40:55;;;;;;;0.40;0.40;;;;;;;5.79;100.00;100508.03;5055307;28;20494;-80
2023/01/13 10:43:21;;;;;;;0.50;0.50;;;;;;;5.90;100.00;100498.00;5055165;28;20474;-79
2023/01/13 10:46:10;;;;;;;0.60;0.60;;;;;;;7.31;100.00;100498.84;5041995;28;20485;-79
2023/01/13 10:48:39;;;;;;;0.50;0.50;;;;;;;8.55;100.00;100506.94;5058519;28;20028;-79
2023/01/13 10:51:41;;;;;;;0.50;0.50;;;;;;;8.57;100.00;100512.97;5042174;28;20028;-79
2023/01/13 10:54:10;;;;;;;0.60;0.60;;;;;;;9.56;100.00;100510.84;5058696;28;20375;-79
2023/01/13 10:56:37;;;;;;;0.63;0.63;;;;;;;9.99;100.00;100503.19;5058697;28;20131;-80
2023/01/13 10:59:22;;;;;;;0.50;0.50;;;;;;;10.68;100.00;100513.94;5058690;28;20115;-78
2023/01/13 11:02:16;;;;;;;0.50;0.50;;;;;;;10.89;100.00;100501.63;5058590;28;20059;-79
2023/01/13 11:04:53;;;;;;;0.60;0.60;;;;;;;10.96;100.00;100489.97;5060372;28;20091;-79
2023/01/13 11:07:37;;;;;;;0.50;0.50;;;;;;;11.15;100.00;100509.25;5058554;28;20036;-78
2023/01/13 11:10:09;;;;;;;0.60;0.60;;;;;;;11.40;100.00;100513.31;5058588;28;20107;-77
2023/01/13 11:12:42;;;;;;;0.50;0.50;;;;;;;11.93;100.00;100488.06;5075203;28;20055;-78
2023/01/13 11:15:13;;;;;;;0.50;0.50;;;;;;;12.62;96.94;100517.13;5075957;28;20039;-77
2023/01/13 11:17:59;;;;;;;0.50;0.50;;;;;;;12.41;97.30;100515.28;5041837;28;20094;-77
2023/01/13 11:20:37;;;;;;;0.50;0.50;;;;;;;12.34;98.85;100509.84;5074870;28;20025;-78
2023/01/13 11:23:20;;;;;;;0.50;0.50;;;;;;;12.59;97.37;100507.53;5057997;28;20029;-77
2023/01/13 11:25:51;;;;;;;0.50;0.50;;;;;;;12.07;98.81;100495.28;5042077;28;20028;-77
2023/01/13 11:28:23;;;;;;;0.50;0.50;;;;;;;12.27;98.76;100509.75;5074777;28;20187;-79
2023/01/13 11:31:04;;;;;;;0.50;0.50;;;;;;;11.72;100.00;100500.44;5074843;28;20028;-78
2023/01/13 11:34:03;;;;;;;0.50;0.50;;;;;;;10.83;100.00;100491.63;5074708;28;20121;-78
2023/01/13 11:36:57;;;;;;;0.50;0.50;;;;;;;10.75;100.00;100514.06;5075484;28;20050;-78
2023/01/13 11:39:41;;;;;;;0.50;0.50;;;;;;;10.87;100.00;100509.88;5057398;28;20034;-78
2023/01/13 11:42:23;;;;;;;0.50;0.50;;;;;;;11.57;100.00;100497.78;5074264;28;20025;-78
2023/01/13 11:45:06;;;;;;;0.50;0.50;;;;;;;12.32;99.96;100498.41;5075554;28;20028;-77
2023/01/13 11:47:34;;;;;;;0.57;0.57;;;;;;;13.11;96.10;100494.63;5074224;28;20040;-77
2023/01/13 11:50:01;;;;;;;0.40;0.40;;;;;;;12.00;99.92;100514.06;5073901;28;20040;-77
2023/01/13 11:52:54;;;;;;;0.40;0.40;;;;;;;10.28;100.00;100510.56;5073979;28;20037;-77
2023/01/13 11:56:04;;;;;;;0.47;0.47;;;;;;;9.15;100.00;100491.38;5040881;28;20032;-79
2023/01/13 11:58:35;;;;;;;0.40;0.40;;;;;;;8.43;100.00;100486.84;5000093;28;20080;-78
2023/01/13 12:01:10;;;;;;;0.40;0.40;;;;;;;7.98;100.00;100495.34;5016405;28;20259;-79
2023/01/13 12:03:42;;;;;;;0.40;0.40;;;;;;;7.71;100.00;100502.66;5039245;28;20542;-79
2023/01/13 12:06:29;;;;;;;0.40;0.40;;;;;;;7.66;100.00;100502.28;5040764;28;20055;-79
2023/01/13 12:09:10;;;;;;;0.40;0.40;;;;;;;7.54;100.00;100515.16;5075087;28;20028;-79
2023/01/13 12:14:44;;;;;;;0.40;0.40;;;;;;;7.49;100.00;100520.97;5074555;28;20020;-79
2023/01/13 12:17:22;;;;;;;0.45;0.45;;;;;;;8.08;100.00;100515.59;5073887;28;20055;-80
2023/01/13 12:19:49;;;;;;;0.50;0.50;;;;;;;8.78;100.00;100515.09;5040329;28;20396;-79
2023/01/13 12:22:22;;;;;;;0.50;0.50;;;;;;;9.54;100.00;100515.53;5073636;28;20036;-79
2023/01/13 12:24:51;;;;;;;0.50;0.50;;;;;;;9.56;100.00;100528.81;5056730;28;20140;-79
2023/01/13 12:27:32;;;;;;;0.50;0.50;;;;;;;10.74;100.00;100507.84;5073392;28;20094;-79
2023/01/13 12:30:01;;;;;;;0.40;0.40;;;;;;;10.13;100.00;100505.13;5056955;28;20059;-79
2023/01/13 12:32:35;;;;;;;0.50;0.50;;;;;;;10.72;100.00;100487.53;5039877;28;20048;-78